sensor_id;sensor_type;location;lat;lon;timestamp;temperature;humidity
25320;DHT22;13256;49.012;8.610;2023-12-20T00:01:45;6.30;99.90
25320;DHT22;13256;49.012;8.610;2023-12-20T00:04:17;6.30;99.90
25320;DHT22;13256;49.012;8.610;2023-12-20T00:06:45;6.20;99.90
25320;DHT22;13256;49.012;8.610;2023-12-20T00:09:17;6.20;99.90
25320;DHT22;13256;49.012;8.610;2023-12-20T00:11:45;6.20;99.90
25320;DHT22;13256;49.012;8.610;2023-12-20T00:14:17;6.10;99.90
25320;DHT22;13256;49.012;8.610;2023-12-20T00:16:47;6.10;99.90
25320;DHT22;13256;49.012;8.610;2023-12-20T00:19:16;6.10;99.90
25320;DHT22;13256;49.012;8.610;2023-12-20T00:21:50;6.10;99.90
25320;DHT22;13256;49.012;8.610;2023-12-20T00:24:22;6.10;99.90
25320;DHT22;13256;49.012;8.610;2023-12-20T00:27:16;6.10;99.90
25320;DHT22;13256;49.012;8.610;2023-12-20T00:29:44;6.10;99.90
25320;DHT22;13256;49.012;8.610;2023-12-20T00:32:19;6.00;99.90
25320;DHT22;13256;49.012;8.610;2023-12-20T00:34:47;6.10;99.90
25320;DHT22;13256;49.012;8.610;2023-12-20T00:37:21;6.10;99.90
25320;DHT22;13256;49.012;8.610;2023-12-20T00:39:50;6.00;99.90
25320;DHT22;13256;49.012;8.610;2023-12-20T00:42:20;6.00;99.90
25320;DHT22;13256;49.012;8.610;2023-12-20T00:44:49;6.00;99.90
25320;DHT22;13256;49.012;8.610;2023-12-20T00:47:20;6.00;99.90
25320;DHT22;13256;49.012;8.610;2023-12-20T00:49:50;6.00;99.90
25320;DHT22;13256;49.012;8.610;2023-12-20T00:52:18;6.00;99.90
25320;DHT22;13256;49.012;8.610;2023-12-20T00:54:48;6.00;99.90
25320;DHT22;13256;49.012;8.610;2023-12-20T00:57:15;6.00;99.90
25320;DHT22;13256;49.012;8.610;2023-12-20T00:59:45;6.00;99.90
25320;DHT22;13256;49.012;8.610;2023-12-20T01:06:05;6.00;99.90
25320;DHT22;13256;49.012;8.610;2023-12-20T01:08:32;6.00;99.90
25320;DHT22;13256;49.012;8.610;2023-12-20T01:11:06;6.00;99.90
25320;DHT22;13256;49.012;8.610;2023-12-20T01:13:36;6.00;99.90
25320;DHT22;13256;49.012;8.610;2023-12-20T01:16:11;6.00;99.90
25320;DHT22;13256;49.012;8.610;2023-12-20T01:18:42;6.00;99.90
25320;DHT22;13256;49.012;8.610;2023-12-20T01:21:38;6.00;99.90
25320;DHT22;13256;49.012;8.610;2023-12-20T01:24:05;6.00;99.90
25320;DHT22;13256;49.012;8.610;2023-12-20T01:26:35;6.10;99.90
25320;DHT22;13256;49.012;8.610;2023-12-20T01:29:02;6.10;99.90
25320;DHT22;13256;49.012;8.610;2023-12-20T01:31:29;6.10;99.90
25320;DHT22;13256;49.012;8.610;2023-12-20T01:33:56;6.10;99.90
25320;DHT22;13256;49.012;8.610;2023-12-20T01:36:26;6.10;99.90
25320;DHT22;13256;49.012;8.610;2023-12-20T01:38:53;6.10;99.90
25320;DHT22;13256;49.012;8.610;2023-12-20T01:41:23;6.10;99.90
25320;DHT22;13256;49.012;8.610;2023-12-20T01:43:52;6.20;99.90
25320;DHT22;13256;49.012;8.610;2023-12-20T01:46:23;6.20;99.90
25320;DHT22;13256;49.012;8.610;2023-12-20T01:48:52;6.20;99.90
25320;DHT22;13256;49.012;8.610;2023-12-20T01:54:40;6.20;99.90
25320;DHT22;13256;49.012;8.610;2023-12-20T01:57:10;6.20;99.90
25320;DHT22;13256;49.012;8.610;2023-12-20T01:59:39;6.20;99.90
25320;DHT22;13256;49.012;8.610;2023-12-20T02:02:07;6.30;99.90
25320;DHT22;13256;49.012;8.610;2023-12-20T02:04:36;6.30;99.90
25320;DHT22;13256;49.012;8.610;2023-12-20T02:07:08;6.30;99.90
25320;DHT22;13256;49.012;8.610;2023-12-20T02:09:39;6.30;99.90
25320;DHT22;13256;49.012;8.610;2023-12-20T02:12:07;6.20;99.90
25320;DHT22;13256;49.012;8.610;2023-12-20T02:14:46;6.30;99.90
25320;DHT22;13256;49.012;8.610;2023-12-20T02:17:13;6.20;99.90
25320;DHT22;13256;49.012;8.610;2023-12-20T02:19:41;6.20;99.90
25320;DHT22;13256;49.012;8.610;2023-12-20T02:22:10;6.30;99.90
25320;DHT22;13256;49.012;8.610;2023-12-20T02:24:37;6.30;99.90
25320;DHT22;13256;49.012;8.610;2023-12-20T02:27:08;6.30;99.90
25320;DHT22;13256;49.012;8.610;2023-12-20T02:29:40;6.20;99.90
25320;DHT22;13256;49.012;8.610;2023-12-20T02:32:07;6.20;99.90
25320;DHT22;13256;49.012;8.610;2023-12-20T02:34:40;6.30;99.90
25320;DHT22;13256;49.012;8.610;2023-12-20T02:37:07;6.30;99.90
25320;DHT22;13256;49.012;8.610;2023-12-20T02:39:35;6.30;99.90
25320;DHT22;13256;49.012;8.610;2023-12-20T02:42:02;6.30;99.90
25320;DHT22;13256;49.012;8.610;2023-12-20T02:44:35;6.30;99.90
25320;DHT22;13256;49.012;8.610;2023-12-20T02:47:03;6.30;99.90
25320;DHT22;13256;49.012;8.610;2023-12-20T02:49:31;6.30;99.90
25320;DHT22;13256;49.012;8.610;2023-12-20T02:51:58;6.30;99.90
25320;DHT22;13256;49.012;8.610;2023-12-20T02:54:27;6.30;99.90
25320;DHT22;13256;49.012;8.610;2023-12-20T02:56:55;6.40;99.90
25320;DHT22;13256;49.012;8.610;2023-12-20T02:59:21;6.30;99.90
25320;DHT22;13256;49.012;8.610;2023-12-20T03:01:50;6.30;99.90
25320;DHT22;13256;49.012;8.610;2023-12-20T03:04:17;6.30;99.90
25320;DHT22;13256;49.012;8.610;2023-12-20T03:06:49;6.30;99.90
25320;DHT22;13256;49.012;8.610;2023-12-20T03:09:24;6.30;99.90
25320;DHT22;13256;49.012;8.610;2023-12-20T03:11:51;6.20;99.90
25320;DHT22;13256;49.012;8.610;2023-12-20T03:14:20;6.20;99.90
25320;DHT22;13256;49.012;8.610;2023-12-20T03:16:50;6.20;99.90
25320;DHT22;13256;49.012;8.610;2023-12-20T03:19:18;6.20;99.90
25320;DHT22;13256;49.012;8.610;2023-12-20T03:21:49;6.20;99.90
25320;DHT22;13256;49.012;8.610;2023-12-20T03:24:19;6.20;99.90
25320;DHT22;13256;49.012;8.610;2023-12-20T03:26:47;6.20;99.90
25320;DHT22;13256;49.012;8.610;2023-12-20T03:29:16;6.20;99.90
25320;DHT22;13256;49.012;8.610;2023-12-20T03:31:49;6.20;99.90
25320;DHT22;13256;49.012;8.610;2023-12-20T03:34:19;6.20;99.90
25320;DHT22;13256;49.012;8.610;2023-12-20T03:36:47;6.20;99.90
25320;DHT22;13256;49.012;8.610;2023-12-20T03:39:14;6.20;99.90
25320;DHT22;13256;49.012;8.610;2023-12-20T03:41:47;6.20;99.90
25320;DHT22;13256;49.012;8.610;2023-12-20T03:44:16;6.20;99.90
25320;DHT22;13256;49.012;8.610;2023-12-20T03:46:49;6.20;99.90
25320;DHT22;13256;49.012;8.610;2023-12-20T03:49:19;6.20;99.90
25320;DHT22;13256;49.012;8.610;2023-12-20T03:51:50;6.20;99.90
25320;DHT22;13256;49.012;8.610;2023-12-20T03:54:21;6.20;99.90
25320;DHT22;13256;49.012;8.610;2023-12-20T03:56:50;6.20;99.90
25320;DHT22;13256;49.012;8.610;2023-12-20T03:59:18;6.20;99.90
25320;DHT22;13256;49.012;8.610;2023-12-20T04:02:10;6.20;99.90
25320;DHT22;13256;49.012;8.610;2023-12-20T04:04:38;6.20;99.90
25320;DHT22;13256;49.012;8.610;2023-12-20T04:07:05;6.30;99.90
25320;DHT22;13256;49.012;8.610;2023-12-20T04:09:32;6.20;99.90
25320;DHT22;13256;49.012;8.610;2023-12-20T04:12:02;6.20;99.90
25320;DHT22;13256;49.012;8.610;2023-12-20T04:14:28;6.20;99.90
25320;DHT22;13256;49.012;8.610;2023-12-20T04:16:57;6.20;99.90
25320;DHT22;13256;49.012;8.610;2023-12-20T04:19:26;6.20;99.90
25320;DHT22;13256;49.012;8.610;2023-12-20T04:21:55;6.20;99.90
25320;DHT22;13256;49.012;8.610;2023-12-20T04:24:26;6.20;99.90
25320;DHT22;13256;49.012;8.610;2023-12-20T04:26:55;6.20;99.90
25320;DHT22;13256;49.012;8.610;2023-12-20T04:29:22;6.30;99.90
25320;DHT22;13256;49.012;8.610;2023-12-20T04:31:50;6.30;99.90
25320;DHT22;13256;49.012;8.610;2023-12-20T04:34:19;6.30;99.90
25320;DHT22;13256;49.012;8.610;2023-12-20T04:36:46;6.30;99.90
25320;DHT22;13256;49.012;8.610;2023-12-20T04:39:13;6.30;99.90
25320;DHT22;13256;49.012;8.610;2023-12-20T04:41:42;6.20;99.90
25320;DHT22;13256;49.012;8.610;2023-12-20T04:44:09;6.20;99.90
25320;DHT22;13256;49.012;8.610;2023-12-20T04:46:43;6.30;99.90
25320;DHT22;13256;49.012;8.610;2023-12-20T04:49:12;6.30;99.90
25320;DHT22;13256;49.012;8.610;2023-12-20T04:51:39;6.30;99.90
25320;DHT22;13256;49.012;8.610;2023-12-20T04:54:07;6.30;99.90
25320;DHT22;13256;49.012;8.610;2023-12-20T04:56:34;6.30;99.90
25320;DHT22;13256;49.012;8.610;2023-12-20T04:59:03;6.30;99.90
25320;DHT22;13256;49.012;8.610;2023-12-20T05:01:32;6.30;99.90
25320;DHT22;13256;49.012;8.610;2023-12-20T05:04:01;6.30;99.90
25320;DHT22;13256;49.012;8.610;2023-12-20T05:06:28;6.20;99.90
25320;DHT22;13256;49.012;8.610;2023-12-20T05:12:12;6.20;99.90
25320;DHT22;13256;49.012;8.610;2023-12-20T05:14:39;6.20;99.90
25320;DHT22;13256;49.012;8.610;2023-12-20T05:17:10;6.20;99.90
25320;DHT22;13256;49.012;8.610;2023-12-20T05:19:37;6.20;99.90
25320;DHT22;13256;49.012;8.610;2023-12-20T05:22:06;6.20;99.90
25320;DHT22;13256;49.012;8.610;2023-12-20T05:24:33;6.20;99.90
25320;DHT22;13256;49.012;8.610;2023-12-20T05:27:02;6.20;99.90
25320;DHT22;13256;49.012;8.610;2023-12-20T05:29:35;6.20;99.90
25320;DHT22;13256;49.012;8.610;2023-12-20T05:32:02;6.20;99.90
25320;DHT22;13256;49.012;8.610;2023-12-20T05:34:31;6.20;99.90
25320;DHT22;13256;49.012;8.610;2023-12-20T05:36:58;6.20;99.90
25320;DHT22;13256;49.012;8.610;2023-12-20T05:39:25;6.20;99.90
25320;DHT22;13256;49.012;8.610;2023-12-20T05:41:52;6.20;99.90
25320;DHT22;13256;49.012;8.610;2023-12-20T05:44:21;6.20;99.90
25320;DHT22;13256;49.012;8.610;2023-12-20T05:46:51;6.20;99.90
25320;DHT22;13256;49.012;8.610;2023-12-20T05:49:20;6.20;99.90
25320;DHT22;13256;49.012;8.610;2023-12-20T05:51:48;6.20;99.90
25320;DHT22;13256;49.012;8.610;2023-12-20T05:54:16;6.20;99.90
25320;DHT22;13256;49.012;8.610;2023-12-20T05:56:44;6.20;99.90
25320;DHT22;13256;49.012;8.610;2023-12-20T05:59:11;6.20;99.90
25320;DHT22;13256;49.012;8.610;2023-12-20T06:01:41;6.20;99.90
25320;DHT22;13256;49.012;8.610;2023-12-20T06:04:07;6.20;99.90
25320;DHT22;13256;49.012;8.610;2023-12-20T06:06:41;6.20;99.90
25320;DHT22;13256;49.012;8.610;2023-12-20T06:09:08;6.20;99.90
25320;DHT22;13256;49.012;8.610;2023-12-20T06:11:39;6.20;99.90
25320;DHT22;13256;49.012;8.610;2023-12-20T06:14:08;6.20;99.90
25320;DHT22;13256;49.012;8.610;2023-12-20T06:16:38;6.20;99.90
25320;DHT22;13256;49.012;8.610;2023-12-20T06:19:07;6.30;99.90
25320;DHT22;13256;49.012;8.610;2023-12-20T06:21:34;6.30;99.90
25320;DHT22;13256;49.012;8.610;2023-12-20T06:24:01;6.30;99.90
25320;DHT22;13256;49.012;8.610;2023-12-20T06:26:28;6.20;99.90
25320;DHT22;13256;49.012;8.610;2023-12-20T06:28:56;6.20;99.90
25320;DHT22;13256;49.012;8.610;2023-12-20T06:31:22;6.20;99.90
25320;DHT22;13256;49.012;8.610;2023-12-20T06:33:49;6.20;99.90
25320;DHT22;13256;49.012;8.610;2023-12-20T06:36:29;6.20;99.90
25320;DHT22;13256;49.012;8.610;2023-12-20T06:38:55;6.20;99.90
25320;DHT22;13256;49.012;8.610;2023-12-20T06:41:26;6.20;99.90
25320;DHT22;13256;49.012;8.610;2023-12-20T06:43:57;6.20;99.90
25320;DHT22;13256;49.012;8.610;2023-12-20T06:46:26;6.20;99.90
25320;DHT22;13256;49.012;8.610;2023-12-20T06:48:54;6.20;99.90
25320;DHT22;13256;49.012;8.610;2023-12-20T06:51:21;6.30;99.90
25320;DHT22;13256;49.012;8.610;2023-12-20T06:53:53;6.30;99.90
25320;DHT22;13256;49.012;8.610;2023-12-20T06:56:19;6.30;99.90
25320;DHT22;13256;49.012;8.610;2023-12-20T06:58:48;6.30;99.90
25320;DHT22;13256;49.012;8.610;2023-12-20T07:01:16;6.30;99.90
25320;DHT22;13256;49.012;8.610;2023-12-20T07:03:49;6.30;99.90
25320;DHT22;13256;49.012;8.610;2023-12-20T07:06:18;6.30;99.90
25320;DHT22;13256;49.012;8.610;2023-12-20T07:08:45;6.30;99.90
25320;DHT22;13256;49.012;8.610;2023-12-20T07:11:16;6.30;99.90
25320;DHT22;13256;49.012;8.610;2023-12-20T07:13:44;6.30;99.90
25320;DHT22;13256;49.012;8.610;2023-12-20T07:16:11;6.20;99.90
25320;DHT22;13256;49.012;8.610;2023-12-20T07:18:37;6.20;99.90
25320;DHT22;13256;49.012;8.610;2023-12-20T07:21:07;6.20;99.90
25320;DHT22;13256;49.012;8.610;2023-12-20T07:23:37;6.10;99.90
25320;DHT22;13256;49.012;8.610;2023-12-20T07:26:05;6.10;99.90
25320;DHT22;13256;49.012;8.610;2023-12-20T07:28:32;6.10;99.90
25320;DHT22;13256;49.012;8.610;2023-12-20T07:31:01;6.10;99.90
25320;DHT22;13256;49.012;8.610;2023-12-20T07:33:32;6.10;99.90
25320;DHT22;13256;49.012;8.610;2023-12-20T07:36:10;6.10;99.90
25320;DHT22;13256;49.012;8.610;2023-12-20T07:38:41;6.10;99.90
25320;DHT22;13256;49.012;8.610;2023-12-20T07:41:12;6.10;99.90
25320;DHT22;13256;49.012;8.610;2023-12-20T07:43:39;6.10;99.90
25320;DHT22;13256;49.012;8.610;2023-12-20T07:46:08;6.10;99.90
25320;DHT22;13256;49.012;8.610;2023-12-20T07:51:30;6.00;99.90
25320;DHT22;13256;49.012;8.610;2023-12-20T07:54:02;6.00;99.90
25320;DHT22;13256;49.012;8.610;2023-12-20T07:56:30;6.00;99.90
25320;DHT22;13256;49.012;8.610;2023-12-20T07:58:57;6.00;99.90
25320;DHT22;13256;49.012;8.610;2023-12-20T08:01:27;6.00;99.90
25320;DHT22;13256;49.012;8.610;2023-12-20T08:03:57;5.90;99.90
25320;DHT22;13256;49.012;8.610;2023-12-20T08:06:26;5.90;99.90
25320;DHT22;13256;49.012;8.610;2023-12-20T08:08:52;5.90;99.90
25320;DHT22;13256;49.012;8.610;2023-12-20T08:11:34;5.90;99.90
25320;DHT22;13256;49.012;8.610;2023-12-20T08:14:01;5.90;99.90
25320;DHT22;13256;49.012;8.610;2023-12-20T08:16:29;5.90;99.90
25320;DHT22;13256;49.012;8.610;2023-12-20T08:18:58;5.80;99.90
25320;DHT22;13256;49.012;8.610;2023-12-20T08:21:26;5.80;99.90
25320;DHT22;13256;49.012;8.610;2023-12-20T08:23:54;5.70;99.90
25320;DHT22;13256;49.012;8.610;2023-12-20T08:26:21;5.70;99.90
25320;DHT22;13256;49.012;8.610;2023-12-20T08:28:50;5.70;99.90
25320;DHT22;13256;49.012;8.610;2023-12-20T08:31:17;5.70;99.90
25320;DHT22;13256;49.012;8.610;2023-12-20T08:33:48;5.80;99.90
25320;DHT22;13256;49.012;8.610;2023-12-20T08:36:19;5.80;99.90
25320;DHT22;13256;49.012;8.610;2023-12-20T08:38:49;5.80;99.90
25320;DHT22;13256;49.012;8.610;2023-12-20T08:41:17;5.90;99.90
25320;DHT22;13256;49.012;8.610;2023-12-20T08:43:44;5.90;99.90
25320;DHT22;13256;49.012;8.610;2023-12-20T08:46:14;6.00;99.90
25320;DHT22;13256;49.012;8.610;2023-12-20T08:48:42;6.00;99.90
25320;DHT22;13256;49.012;8.610;2023-12-20T08:51:10;6.10;99.90
25320;DHT22;13256;49.012;8.610;2023-12-20T08:53:39;6.20;99.90
25320;DHT22;13256;49.012;8.610;2023-12-20T08:56:08;6.30;99.90
25320;DHT22;13256;49.012;8.610;2023-12-20T08:58:36;6.40;99.90
25320;DHT22;13256;49.012;8.610;2023-12-20T09:01:04;6.50;99.90
25320;DHT22;13256;49.012;8.610;2023-12-20T09:03:36;6.50;99.90
25320;DHT22;13256;49.012;8.610;2023-12-20T09:06:05;6.60;99.90
25320;DHT22;13256;49.012;8.610;2023-12-20T09:08:32;6.70;99.90
25320;DHT22;13256;49.012;8.610;2023-12-20T09:11:03;6.80;99.90
25320;DHT22;13256;49.012;8.610;2023-12-20T09:13:31;6.80;99.90
25320;DHT22;13256;49.012;8.610;2023-12-20T09:16:08;6.90;99.90
25320;DHT22;13256;49.012;8.610;2023-12-20T09:19:03;6.90;99.90
25320;DHT22;13256;49.012;8.610;2023-12-20T09:21:31;7.00;99.90
25320;DHT22;13256;49.012;8.610;2023-12-20T09:26:51;7.10;99.90
25320;DHT22;13256;49.012;8.610;2023-12-20T09:29:19;7.20;99.90
25320;DHT22;13256;49.012;8.610;2023-12-20T09:31:47;7.20;99.90
25320;DHT22;13256;49.012;8.610;2023-12-20T09:34:15;7.20;99.90
25320;DHT22;13256;49.012;8.610;2023-12-20T09:36:46;7.30;99.90
25320;DHT22;13256;49.012;8.610;2023-12-20T09:39:14;7.30;99.90
25320;DHT22;13256;49.012;8.610;2023-12-20T09:41:44;7.50;99.90
25320;DHT22;13256;49.012;8.610;2023-12-20T09:44:16;7.50;99.90
25320;DHT22;13256;49.012;8.610;2023-12-20T09:46:49;7.60;99.90
25320;DHT22;13256;49.012;8.610;2023-12-20T09:49:18;7.60;99.90
25320;DHT22;13256;49.012;8.610;2023-12-20T09:51:47;7.60;99.90
25320;DHT22;13256;49.012;8.610;2023-12-20T09:54:20;7.70;99.90
25320;DHT22;13256;49.012;8.610;2023-12-20T09:56:47;7.90;99.90
25320;DHT22;13256;49.012;8.610;2023-12-20T09:59:16;7.80;99.90
25320;DHT22;13256;49.012;8.610;2023-12-20T10:01:48;7.90;99.90
25320;DHT22;13256;49.012;8.610;2023-12-20T10:04:16;7.90;99.90
25320;DHT22;13256;49.012;8.610;2023-12-20T10:07:01;8.00;99.90
25320;DHT22;13256;49.012;8.610;2023-12-20T10:09:35;8.20;99.90
25320;DHT22;13256;49.012;8.610;2023-12-20T10:12:03;8.20;99.90
25320;DHT22;13256;49.012;8.610;2023-12-20T10:14:37;8.00;99.90
25320;DHT22;13256;49.012;8.610;2023-12-20T10:17:07;7.70;99.90
25320;DHT22;13256;49.012;8.610;2023-12-20T10:19:37;7.60;99.90
25320;DHT22;13256;49.012;8.610;2023-12-20T10:22:10;7.50;99.90
25320;DHT22;13256;49.012;8.610;2023-12-20T10:31:33;7.40;99.90
25320;DHT22;13256;49.012;8.610;2023-12-20T10:34:10;7.40;99.90
25320;DHT22;13256;49.012;8.610;2023-12-20T10:36:38;7.30;99.90
25320;DHT22;13256;49.012;8.610;2023-12-20T10:39:10;7.20;99.90
25320;DHT22;13256;49.012;8.610;2023-12-20T10:42:04;7.20;99.90
25320;DHT22;13256;49.012;8.610;2023-12-20T10:44:35;7.10;99.90
25320;DHT22;13256;49.012;8.610;2023-12-20T10:47:04;7.10;99.90
25320;DHT22;13256;49.012;8.610;2023-12-20T10:49:35;7.00;99.90
25320;DHT22;13256;49.012;8.610;2023-12-20T10:52:34;7.00;99.90
25320;DHT22;13256;49.012;8.610;2023-12-20T10:55:11;6.90;99.90
25320;DHT22;13256;49.012;8.610;2023-12-20T11:01:00;6.90;99.90
25320;DHT22;13256;49.012;8.610;2023-12-20T11:03:57;6.90;99.90
25320;DHT22;13256;49.012;8.610;2023-12-20T11:06:49;6.80;99.90
25320;DHT22;13256;49.012;8.610;2023-12-20T11:10:03;6.80;99.90
25320;DHT22;13256;49.012;8.610;2023-12-20T11:12:57;6.90;99.90
25320;DHT22;13256;49.012;8.610;2023-12-20T11:15:27;6.80;99.90
25320;DHT22;13256;49.012;8.610;2023-12-20T11:18:00;6.80;99.90
25320;DHT22;13256;49.012;8.610;2023-12-20T11:20:41;6.80;99.90
25320;DHT22;13256;49.012;8.610;2023-12-20T11:26:30;6.90;99.90
25320;DHT22;13256;49.012;8.610;2023-12-20T11:29:37;6.90;99.90
25320;DHT22;13256;49.012;8.610;2023-12-20T11:37:35;6.90;99.90
25320;DHT22;13256;49.012;8.610;2023-12-20T11:40:11;6.90;99.90
25320;DHT22;13256;49.012;8.610;2023-12-20T11:42:41;6.90;99.90
25320;DHT22;13256;49.012;8.610;2023-12-20T11:45:15;6.90;99.90
25320;DHT22;13256;49.012;8.610;2023-12-20T11:47:45;6.90;99.90
25320;DHT22;13256;49.012;8.610;2023-12-20T11:50:18;6.90;99.90
25320;DHT22;13256;49.012;8.610;2023-12-20T11:52:56;6.90;99.90
25320;DHT22;13256;49.012;8.610;2023-12-20T11:55:27;6.80;99.90
25320;DHT22;13256;49.012;8.610;2023-12-20T11:57:58;6.80;99.90
25320;DHT22;13256;49.012;8.610;2023-12-20T12:00:35;6.80;99.90
25320;DHT22;13256;49.012;8.610;2023-12-20T12:03:09;6.80;99.90
25320;DHT22;13256;49.012;8.610;2023-12-20T12:05:35;6.70;99.90
25320;DHT22;13256;49.012;8.610;2023-12-20T12:08:09;6.70;99.90
25320;DHT22;13256;49.012;8.610;2023-12-20T12:10:43;6.70;99.90
25320;DHT22;13256;49.012;8.610;2023-12-20T12:13:12;6.70;99.90
25320;DHT22;13256;49.012;8.610;2023-12-20T12:15:42;6.70;99.90
25320;DHT22;13256;49.012;8.610;2023-12-20T12:18:18;6.70;99.90
25320;DHT22;13256;49.012;8.610;2023-12-20T12:20:46;6.70;99.90
25320;DHT22;13256;49.012;8.610;2023-12-20T12:23:23;6.70;99.90
25320;DHT22;13256;49.012;8.610;2023-12-20T12:25:52;6.80;99.90
25320;DHT22;13256;49.012;8.610;2023-12-20T12:28:19;6.70;99.90
25320;DHT22;13256;49.012;8.610;2023-12-20T12:30:59;6.80;99.90
25320;DHT22;13256;49.012;8.610;2023-12-20T12:33:28;6.80;99.90
25320;DHT22;13256;49.012;8.610;2023-12-20T12:35:58;6.80;99.90
25320;DHT22;13256;49.012;8.610;2023-12-20T12:38:27;6.80;99.90
25320;DHT22;13256;49.012;8.610;2023-12-20T12:40:56;6.80;99.90
25320;DHT22;13256;49.012;8.610;2023-12-20T12:43:24;6.90;99.90
25320;DHT22;13256;49.012;8.610;2023-12-20T12:45:53;6.90;99.90
25320;DHT22;13256;49.012;8.610;2023-12-20T12:48:22;6.80;99.90
25320;DHT22;13256;49.012;8.610;2023-12-20T12:50:50;6.80;99.90
25320;DHT22;13256;49.012;8.610;2023-12-20T12:53:23;6.80;99.90
25320;DHT22;13256;49.012;8.610;2023-12-20T12:55:50;6.80;99.90
25320;DHT22;13256;49.012;8.610;2023-12-20T12:58:20;6.80;99.90
25320;DHT22;13256;49.012;8.610;2023-12-20T13:00:54;6.80;99.90
25320;DHT22;13256;49.012;8.610;2023-12-20T13:03:22;6.80;99.90
25320;DHT22;13256;49.012;8.610;2023-12-20T13:05:50;6.80;99.90
25320;DHT22;13256;49.012;8.610;2023-12-20T13:08:19;6.80;99.90
25320;DHT22;13256;49.012;8.610;2023-12-20T13:10:47;6.80;99.90
25320;DHT22;13256;49.012;8.610;2023-12-20T13:14:02;6.70;99.90
25320;DHT22;13256;49.012;8.610;2023-12-20T13:16:34;6.80;99.90
25320;DHT22;13256;49.012;8.610;2023-12-20T13:19:01;6.70;99.90
25320;DHT22;13256;49.012;8.610;2023-12-20T13:21:33;6.70;99.90
25320;DHT22;13256;49.012;8.610;2023-12-20T13:24:03;6.70;99.90
25320;DHT22;13256;49.012;8.610;2023-12-20T13:26:58;6.70;99.90
25320;DHT22;13256;49.012;8.610;2023-12-20T13:29:26;6.70;99.90
25320;DHT22;13256;49.012;8.610;2023-12-20T13:31:59;6.60;99.90
25320;DHT22;13256;49.012;8.610;2023-12-20T13:34:58;6.60;99.90
25320;DHT22;13256;49.012;8.610;2023-12-20T13:37:31;6.60;99.90
25320;DHT22;13256;49.012;8.610;2023-12-20T13:39:59;6.60;99.90
25320;DHT22;13256;49.012;8.610;2023-12-20T13:42:59;6.60;99.90
25320;DHT22;13256;49.012;8.610;2023-12-20T13:45:42;6.60;99.90
25320;DHT22;13256;49.012;8.610;2023-12-20T13:48:16;6.60;99.90
25320;DHT22;13256;49.012;8.610;2023-12-20T13:50:43;6.60;99.90
25320;DHT22;13256;49.012;8.610;2023-12-20T13:53:35;6.50;99.90
25320;DHT22;13256;49.012;8.610;2023-12-20T13:56:07;6.50;99.90
25320;DHT22;13256;49.012;8.610;2023-12-20T13:58:36;6.50;99.90
25320;DHT22;13256;49.012;8.610;2023-12-20T14:01:12;6.50;99.90
25320;DHT22;13256;49.012;8.610;2023-12-20T14:03:42;6.50;99.90
25320;DHT22;13256;49.012;8.610;2023-12-20T14:06:09;6.50;99.90
25320;DHT22;13256;49.012;8.610;2023-12-20T14:08:40;6.50;99.90
25320;DHT22;13256;49.012;8.610;2023-12-20T14:11:11;6.50;99.90
25320;DHT22;13256;49.012;8.610;2023-12-20T14:14:08;6.50;99.90
25320;DHT22;13256;49.012;8.610;2023-12-20T14:16:51;6.60;99.90
25320;DHT22;13256;49.012;8.610;2023-12-20T14:19:21;6.60;99.90
25320;DHT22;13256;49.012;8.610;2023-12-20T14:21:48;6.60;99.90
25320;DHT22;13256;49.012;8.610;2023-12-20T14:24:16;6.60;99.90
25320;DHT22;13256;49.012;8.610;2023-12-20T14:26:46;6.60;99.90
25320;DHT22;13256;49.012;8.610;2023-12-20T14:29:19;6.60;99.90
25320;DHT22;13256;49.012;8.610;2023-12-20T14:31:46;6.60;99.90
25320;DHT22;13256;49.012;8.610;2023-12-20T14:34:18;6.60;99.90
25320;DHT22;13256;49.012;8.610;2023-12-20T14:36:48;6.60;99.90
25320;DHT22;13256;49.012;8.610;2023-12-20T14:39:15;6.50;99.90
25320;DHT22;13256;49.012;8.610;2023-12-20T14:41:50;6.50;99.90
25320;DHT22;13256;49.012;8.610;2023-12-20T14:44:17;6.50;99.90
25320;DHT22;13256;49.012;8.610;2023-12-20T14:46:44;6.50;99.90
25320;DHT22;13256;49.012;8.610;2023-12-20T14:49:13;6.50;99.90
25320;DHT22;13256;49.012;8.610;2023-12-20T14:51:46;6.50;99.90
25320;DHT22;13256;49.012;8.610;2023-12-20T14:54:21;6.50;99.90
25320;DHT22;13256;49.012;8.610;2023-12-20T14:56:54;6.50;99.90
25320;DHT22;13256;49.012;8.610;2023-12-20T14:59:24;6.40;99.90
25320;DHT22;13256;49.012;8.610;2023-12-20T15:01:55;6.40;99.90
25320;DHT22;13256;49.012;8.610;2023-12-20T15:04:25;6.40;99.90
25320;DHT22;13256;49.012;8.610;2023-12-20T15:06:55;6.40;99.90
25320;DHT22;13256;49.012;8.610;2023-12-20T15:09:24;6.30;99.90
25320;DHT22;13256;49.012;8.610;2023-12-20T15:11:51;6.30;99.90
25320;DHT22;13256;49.012;8.610;2023-12-20T15:14:21;6.30;99.90
25320;DHT22;13256;49.012;8.610;2023-12-20T15:16:49;6.30;99.90
25320;DHT22;13256;49.012;8.610;2023-12-20T15:19:19;6.20;99.90
25320;DHT22;13256;49.012;8.610;2023-12-20T15:21:46;6.30;99.90
25320;DHT22;13256;49.012;8.610;2023-12-20T15:24:19;6.30;99.90
25320;DHT22;13256;49.012;8.610;2023-12-20T15:26:57;6.30;99.90
25320;DHT22;13256;49.012;8.610;2023-12-20T15:29:30;6.30;99.90
25320;DHT22;13256;49.012;8.610;2023-12-20T15:32:00;6.30;99.90
25320;DHT22;13256;49.012;8.610;2023-12-20T15:34:35;6.30;99.90
25320;DHT22;13256;49.012;8.610;2023-12-20T15:37:06;6.30;99.90
25320;DHT22;13256;49.012;8.610;2023-12-20T15:39:37;6.20;99.90
25320;DHT22;13256;49.012;8.610;2023-12-20T15:42:05;6.20;99.90
25320;DHT22;13256;49.012;8.610;2023-12-20T15:44:35;6.20;99.90
25320;DHT22;13256;49.012;8.610;2023-12-20T15:47:02;6.20;99.90
25320;DHT22;13256;49.012;8.610;2023-12-20T15:49:29;6.30;99.90
25320;DHT22;13256;49.012;8.610;2023-12-20T15:58:34;6.30;99.90
25320;DHT22;13256;49.012;8.610;2023-12-20T16:09:53;6.40;99.90
25320;DHT22;13256;49.012;8.610;2023-12-20T16:12:25;6.40;99.90
25320;DHT22;13256;49.012;8.610;2023-12-20T16:14:53;6.40;99.90
25320;DHT22;13256;49.012;8.610;2023-12-20T16:17:26;6.40;99.90
25320;DHT22;13256;49.012;8.610;2023-12-20T16:20:18;6.30;99.90
25320;DHT22;13256;49.012;8.610;2023-12-20T16:22:48;6.40;99.90
25320;DHT22;13256;49.012;8.610;2023-12-20T16:25:15;6.40;99.90
25320;DHT22;13256;49.012;8.610;2023-12-20T16:27:47;6.40;99.90
25320;DHT22;13256;49.012;8.610;2023-12-20T16:30:15;6.40;99.90
25320;DHT22;13256;49.012;8.610;2023-12-20T16:32:47;6.40;99.90
25320;DHT22;13256;49.012;8.610;2023-12-20T16:35:15;6.50;99.90
25320;DHT22;13256;49.012;8.610;2023-12-20T16:37:42;6.50;99.90
25320;DHT22;13256;49.012;8.610;2023-12-20T16:40:15;6.60;99.90
25320;DHT22;13256;49.012;8.610;2023-12-20T16:42:44;6.50;99.90
25320;DHT22;13256;49.012;8.610;2023-12-20T16:45:11;6.60;99.90
25320;DHT22;13256;49.012;8.610;2023-12-20T16:47:41;6.60;99.90
25320;DHT22;13256;49.012;8.610;2023-12-20T16:50:10;6.60;99.90
25320;DHT22;13256;49.012;8.610;2023-12-20T16:52:37;6.60;99.90
25320;DHT22;13256;49.012;8.610;2023-12-20T16:55:11;6.60;99.90
25320;DHT22;13256;49.012;8.610;2023-12-20T16:57:40;6.60;99.90
25320;DHT22;13256;49.012;8.610;2023-12-20T17:00:09;6.60;99.90